Time;durP1;ratioP1;P1;durP2;ratioP2;P2;SDS_P1;SDS_P2;PMS_P1;PMS_P2;Temp;Humidity;BMP_temperature;BMP_pressure;BME280_temperature;BME280_humidity;BME280_pressure;Samples;Min_cycle;Max_cycle;Signal;HPM_P1;HPM_P2
2021/03/16 00:01:06;;;;;;;1.03;0.33;;;;;;;3.44;87.57;100425.28;5073388;28;20175;-75
2021/03/16 00:03:32;;;;;;;1.77;1.67;;;;;;;3.46;87.74;100414.22;5073301;28;20186;-75
2021/03/16 00:05:59;;;;;;;1.07;0.47;;;;;;;3.44;87.53;100425.28;5073087;28;20257;-75
2021/03/16 00:08:24;;;;;;;2.80;1.27;;;;;;;3.47;87.63;100432.06;5072367;28;20727;-75
2021/03/16 00:10:50;;;;;;;6.83;0.97;;;;;;;3.47;87.84;100432.06;5055044;28;20682;-73
2021/03/16 00:13:15;;;;;;;0.30;0.27;;;;;;;3.46;87.42;100443.94;5072934;28;20171;-73
2021/03/16 00:15:40;;;;;;;1.83;0.63;;;;;;;3.47;87.50;100440.16;5072893;28;20595;-74
2021/03/16 00:18:13;;;;;;;7.50;1.10;;;;;;;3.47;87.96;100440.16;5054426;28;20759;-73
2021/03/16 00:20:38;;;;;;;1.77;1.23;;;;;;;3.48;87.55;100455.31;5072826;28;20166;-73
2021/03/16 00:23:04;;;;;;;1.30;1.03;;;;;;;3.42;87.19;100449.06;5072640;28;20182;-73
2021/03/16 00:25:29;;;;;;;1.67;1.40;;;;;;;3.43;87.04;100445.28;5054656;28;20171;-73
2021/03/16 00:27:54;;;;;;;15.30;2.63;;;;;;;3.43;86.64;100453.38;5072074;28;20625;-73
2021/03/16 00:30:20;;;;;;;2.00;1.90;;;;;;;3.40;86.69;100456.63;5072523;28;20518;-73
2021/03/16 00:32:45;;;;;;;0.40;0.37;;;;;;;3.40;86.66;100455.81;5072425;28;20224;-72
2021/03/16 00:35:11;;;;;;;0.20;0.20;;;;;;;3.39;86.01;100459.56;5072487;28;20178;-73
2021/03/16 00:37:36;;;;;;;1.07;0.90;;;;;;;3.37;85.97;100467.13;5071900;28;20204;-73
2021/03/16 00:40:03;;;;;;;6.10;0.83;;;;;;;3.37;86.02;100459.84;5070211;28;20175;-73
2021/03/16 00:42:28;;;;;;;0.30;0.30;;;;;;;3.35;85.75;100469.28;5052331;28;20171;-72
2021/03/16 00:44:54;;;;;;;0.87;0.87;;;;;;;3.37;86.07;100472.53;5052351;28;20179;-74
2021/03/16 00:47:19;;;;;;;4.50;1.37;;;;;;;3.36;86.20;100474.44;5051801;28;20199;-73
2021/03/16 00:49:44;;;;;;;5.47;2.67;;;;;;;3.35;86.29;100478.19;5051038;28;20622;-73
2021/03/16 00:52:10;;;;;;;3.07;1.13;;;;;;;3.33;86.53;100476.81;5052021;28;20432;-72
2021/03/16 00:54:35;;;;;;;3.37;0.33;;;;;;;3.33;87.05;100485.75;5051958;28;20505;-73
2021/03/16 00:57:00;;;;;;;0.10;0.10;;;;;;;3.33;87.03;100483.06;5051711;28;20174;-72
2021/03/16 00:59:26;;;;;;;3.60;1.20;;;;;;;3.34;86.93;100487.38;5034163;28;20182;-72
2021/03/16 01:01:51;;;;;;;4.83;0.50;;;;;;;3.33;86.76;100493.00;5052032;28;20179;-73
2021/03/16 01:04:16;;;;;;;0.40;0.40;;;;;;;3.30;86.74;100494.34;5051265;28;20586;-72
2021/03/16 01:06:42;;;;;;;3.23;0.97;;;;;;;3.32;87.22;100494.09;5051330;28;20179;-73
2021/03/16 01:09:07;;;;;;;1.10;1.10;;;;;;;3.30;87.05;100499.75;5051650;28;20210;-73
2021/03/16 01:11:33;;;;;;;1.37;0.80;;;;;;;3.29;86.78;100498.13;5033998;28;20171;-73
2021/03/16 01:13:59;;;;;;;0.93;0.53;;;;;;;3.31;86.57;100508.66;5033730;28;20179;-73
2021/03/16 01:16:24;;;;;;;1.70;1.17;;;;;;;3.30;86.74;100505.16;5051362;28;20183;-73
2021/03/16 01:18:49;;;;;;;6.37;1.53;;;;;;;3.28;86.83;100508.13;5033766;28;20183;-71
2021/03/16 01:21:15;;;;;;;0.87;0.87;;;;;;;3.24;86.89;100517.00;5051570;28;20534;-72
2021/03/16 01:23:40;;;;;;;0.80;0.70;;;;;;;3.21;86.22;100517.53;5051471;28;20179;-72
2021/03/16 01:26:06;;;;;;;3.13;2.53;;;;;;;3.21;86.32;100517.53;5051131;28;20580;-73
2021/03/16 01:28:33;;;;;;;8.53;1.97;;;;;;;3.19;85.69;100519.69;5050903;28;20215;-72
2021/03/16 01:30:59;;;;;;;0.87;0.83;;;;;;;3.22;85.81;100519.97;5051482;28;20179;-72
2021/03/16 01:33:24;;;;;;;0.70;0.70;;;;;;;3.21;86.46;100522.94;5051266;28;20555;-73
2021/03/16 01:35:50;;;;;;;1.87;0.87;;;;;;;3.18;86.05;100523.44;5051693;28;20530;-72
2021/03/16 01:38:15;;;;;;;15.10;2.03;;;;;;;3.22;86.15;100525.38;5050996;28;20179;-73
2021/03/16 01:40:41;;;;;;;0.13;0.13;;;;;;;3.20;86.09;100526.72;5051145;28;20222;-72
2021/03/16 01:43:21;;;;;;;0.40;0.40;;;;;;;3.18;86.88;100531.53;5033355;28;20694;-73
2021/03/16 01:45:48;;;;;;;0.40;0.30;;;;;;;3.15;87.21;100529.38;5051115;28;20743;-73
2021/03/16 01:48:18;;;;;;;0.57;0.57;;;;;;;3.13;87.21;100529.63;5050704;28;20496;-73
2021/03/16 01:50:44;;;;;;;6.80;0.50;;;;;;;3.10;87.40;100529.34;5050896;28;20501;-72
2021/03/16 01:53:09;;;;;;;3.40;1.20;;;;;;;3.07;87.44;100527.16;5051441;28;20568;-73
2021/03/16 01:55:36;;;;;;;3.30;0.40;;;;;;;3.04;87.62;100527.66;5051025;28;20181;-72
2021/03/16 01:58:02;;;;;;;0.30;0.20;;;;;;;2.99;88.00;100540.06;5050468;28;20175;-72
2021/03/16 02:00:35;;;;;;;5.70;1.03;;;;;;;2.92;88.27;100535.97;5050599;28;20421;-72
2021/03/16 02:03:00;;;;;;;23.60;2.33;;;;;;;2.90;88.24;100536.22;5050847;28;20426;-71
2021/03/16 02:05:26;;;;;;;0.90;0.70;;;;;;;2.83;88.35;100541.00;5050156;28;20496;-74
2021/03/16 02:08:02;;;;;;;1.73;0.80;;;;;;;2.78;88.80;100542.88;5050396;28;20230;-72
2021/03/16 02:10:38;;;;;;;2.10;0.87;;;;;;;2.67;89.23;100539.25;5056980;28;20167;-74
2021/03/16 02:13:10;;;;;;;6.03;1.53;;;;;;;2.54;89.60;100536.97;5071184;28;20404;-74
2021/03/16 02:15:39;;;;;;;4.00;0.70;;;;;;;2.43;90.29;100541.47;5070733;28;20406;-75
2021/03/16 02:18:16;;;;;;;0.33;0.30;;;;;;;2.35;90.65;100542.75;5070355;28;20436;-75
2021/03/16 02:21:13;;;;;;;6.33;0.60;;;;;;;2.26;90.73;100538.88;5070611;28;20456;-74
2021/03/16 02:24:00;;;;;;;0.00;0.00;;;;;;;2.14;91.16;100543.59;5070664;28;20417;-75
2021/03/16 02:26:40;;;;;;;0.40;0.27;;;;;;;2.06;91.46;100541.34;5070320;28;20421;-75
2021/03/16 02:29:18;;;;;;;4.07;0.73;;;;;;;2.01;91.67;100550.19;5070280;28;20475;-74
2021/03/16 02:31:56;;;;;;;0.00;0.00;;;;;;;1.96;91.76;100555.53;5070622;28;20417;-74
2021/03/16 02:34:22;;;;;;;1.70;1.53;;;;;;;1.95;92.15;100556.59;5070512;28;20424;-73
2021/03/16 02:36:49;;;;;;;1.53;0.73;;;;;;;1.94;92.13;100559.53;5070168;28;20908;-73
2021/03/16 02:39:16;;;;;;;0.77;0.77;;;;;;;1.92;92.06;100561.66;5070555;28;20212;-75
2021/03/16 02:41:46;;;;;;;0.17;0.17;;;;;;;1.89;92.20;100560.31;5070442;28;20412;-73
2021/03/16 02:44:11;;;;;;;2.30;2.10;;;;;;;1.85;92.40;100558.34;5070715;28;20421;-75
2021/03/16 02:46:46;;;;;;;0.20;0.17;;;;;;;1.82;92.22;100565.03;5070480;28;20416;-75
2021/03/16 02:49:12;;;;;;;0.97;0.60;;;;;;;1.82;92.16;100575.81;5070207;28;20220;-74
2021/03/16 02:51:40;;;;;;;2.07;0.90;;;;;;;1.75;91.98;100584.09;5070517;28;20792;-73
2021/03/16 02:54:06;;;;;;;0.63;0.63;;;;;;;1.73;92.28;100578.13;5070304;28;20416;-74
2021/03/16 02:56:34;;;;;;;13.93;1.33;;;;;;;1.73;92.28;100582.69;5070040;28;20508;-73
2021/03/16 02:59:02;;;;;;;0.00;0.00;;;;;;;1.69;92.28;100582.38;5052376;28;20859;-73
2021/03/16 03:01:30;;;;;;;0.00;0.00;;;;;;;1.63;92.34;100583.38;5070552;28;20764;-74
2021/03/16 03:03:59;;;;;;;2.20;0.93;;;;;;;1.61;92.61;100580.13;5069447;28;20583;-73
2021/03/16 03:06:25;;;;;;;0.33;0.20;;;;;;;1.59;92.58;100587.66;5069255;28;20401;-74
2021/03/16 03:08:52;;;;;;;0.00;0.00;;;;;;;1.60;92.67;100588.47;5069503;28;20504;-74
2021/03/16 03:11:17;;;;;;;3.70;1.27;;;;;;;1.58;92.56;100591.38;5070291;28;20513;-73
2021/03/16 03:13:42;;;;;;;10.93;0.53;;;;;;;1.59;92.54;100593.03;5073074;28;20807;-73
2021/03/16 03:16:08;;;;;;;0.00;0.00;;;;;;;1.58;92.73;100598.66;5073725;28;20167;-74
2021/03/16 03:18:34;;;;;;;0.13;0.03;;;;;;;1.55;92.79;100599.97;5073967;28;20174;-74
2021/03/16 03:21:05;;;;;;;2.07;1.07;;;;;;;1.54;92.59;100609.09;5073758;28;20174;-73
2021/03/16 03:23:33;;;;;;;10.93;0.70;;;;;;;1.58;92.75;100604.84;5073915;28;20417;-73
2021/03/16 03:26:04;;;;;;;0.00;0.00;;;;;;;1.58;92.85;100614.78;5074233;28;20900;-74
2021/03/16 03:28:33;;;;;;;0.00;0.00;;;;;;;1.54;92.73;100613.66;5073369;28;20809;-73
2021/03/16 03:31:01;;;;;;;0.30;0.30;;;;;;;1.56;92.74;100617.75;5056169;28;20997;-73
2021/03/16 03:33:29;;;;;;;0.13;0.00;;;;;;;1.57;93.16;100621.25;5074046;28;20446;-73
2021/03/16 03:35:54;;;;;;;0.20;0.20;;;;;;;1.59;93.28;100621.81;5073661;28;21095;-74
2021/03/16 03:38:22;;;;;;;0.63;0.63;;;;;;;1.60;93.26;100624.28;5073439;28;20539;-74
2021/03/16 03:40:50;;;;;;;2.53;0.67;;;;;;;1.64;93.75;100638.88;5073671;28;20174;-73
2021/03/16 03:43:18;;;;;;;4.47;2.17;;;;;;;1.71;93.99;100638.69;5073604;28;20449;-73
2021/03/16 03:45:45;;;;;;;0.10;0.10;;;;;;;1.75;94.24;100629.88;5073533;28;20416;-73
2021/03/16 03:48:13;;;;;;;24.90;2.57;;;;;;;1.77;94.38;100629.63;5073159;28;20823;-74
2021/03/16 03:50:40;;;;;;;3.20;0.47;;;;;;;1.81;94.18;100638.03;5073461;28;20598;-73
2021/03/16 03:53:06;;;;;;;0.37;0.37;;;;;;;1.83;93.91;100635.88;5036113;28;20432;-74
2021/03/16 03:55:33;;;;;;;0.60;0.60;;;;;;;1.81;94.13;100636.13;5053267;28;20414;-73
2021/03/16 03:57:58;;;;;;;1.33;1.17;;;;;;;1.82;93.93;100636.94;5052829;28;20930;-73
2021/03/16 04:00:25;;;;;;;0.50;0.50;;;;;;;1.84;93.70;100650.97;5053152;28;20433;-74
2021/03/16 04:02:52;;;;;;;1.93;1.00;;;;;;;1.83;94.12;100652.06;5053179;28;20187;-73
2021/03/16 04:05:19;;;;;;;2.60;1.10;;;;;;;1.85;94.16;100658.00;5052344;28;20753;-74
2021/03/16 04:07:45;;;;;;;3.77;0.77;;;;;;;1.87;94.54;100656.69;5052646;28;20453;-74
2021/03/16 04:10:13;;;;;;;2.37;1.10;;;;;;;1.92;94.23;100664.03;5053332;28;20509;-74
2021/03/16 04:12:39;;;;;;;2.33;0.47;;;;;;;1.92;94.65;100667.56;5052962;28;20960;-74
2021/03/16 04:15:09;;;;;;;0.80;0.80;;;;;;;1.93;94.29;100669.19;5053105;28;20505;-73
2021/03/16 04:17:36;;;;;;;7.80;1.43;;;;;;;1.94;94.37;100670.00;5034745;28;20194;-74
2021/03/16 04:20:04;;;;;;;0.30;0.30;;;;;;;1.98;94.59;100674.63;5052964;28;20980;-74
2021/03/16 04:22:29;;;;;;;5.27;0.50;;;;;;;1.98;94.66;100669.22;5052783;28;20440;-74
2021/03/16 04:24:56;;;;;;;0.00;0.00;;;;;;;1.99;94.78;100672.75;5052464;28;20929;-74
2021/03/16 04:27:24;;;;;;;1.43;1.43;;;;;;;1.97;94.52;100675.69;5052369;28;20221;-71
2021/03/16 04:29:50;;;;;;;7.33;1.40;;;;;;;1.98;94.76;100674.63;5052627;28;20425;-74
2021/03/16 04:32:16;;;;;;;0.13;0.13;;;;;;;2.00;94.37;100674.38;5052688;28;20471;-75
2021/03/16 04:34:41;;;;;;;9.33;2.17;;;;;;;1.96;94.09;100675.94;5052692;28;20422;-75
2021/03/16 04:37:07;;;;;;;4.40;1.70;;;;;;;1.95;94.44;100677.81;5034715;28;20202;-73
2021/03/16 04:39:32;;;;;;;1.23;1.17;;;;;;;1.94;94.48;100678.88;5052537;28;20283;-72
2021/03/16 04:41:57;;;;;;;0.40;0.40;;;;;;;1.93;94.63;100674.56;5052398;28;20167;-74
2021/03/16 04:44:23;;;;;;;0.40;0.40;;;;;;;1.92;94.52;100678.31;5034518;28;20168;-74
2021/03/16 04:46:48;;;;;;;0.53;0.43;;;;;;;1.93;94.41;100676.44;5052111;28;20706;-73
2021/03/16 04:49:13;;;;;;;2.23;2.03;;;;;;;1.96;94.63;100681.34;5052255;28;20553;-74
2021/03/16 04:51:40;;;;;;;0.90;0.77;;;;;;;1.95;94.31;100693.19;5052594;28;20194;-72
2021/03/16 04:54:06;;;;;;;1.33;1.23;;;;;;;1.93;94.24;100687.22;5052475;28;20174;-73
2021/03/16 04:56:31;;;;;;;4.63;1.00;;;;;;;1.92;94.29;100704.44;5051910;28;20670;-73
2021/03/16 04:58:57;;;;;;;3.40;3.13;;;;;;;1.89;93.79;100705.78;5052197;28;20707;-74
2021/03/16 05:01:22;;;;;;;16.17;1.53;;;;;;;1.91;93.84;100702.81;5052205;28;20176;-73
2021/03/16 05:03:47;;;;;;;0.97;0.67;;;;;;;1.89;93.81;100702.25;5051322;28;20201;-73
2021/03/16 05:06:13;;;;;;;0.83;0.53;;;;;;;1.90;93.96;100711.97;5051531;28;20171;-72
2021/03/16 05:08:38;;;;;;;19.23;1.43;;;;;;;1.90;93.62;100711.97;5051676;28;20229;-73
2021/03/16 05:11:03;;;;;;;0.20;0.20;;;;;;;1.90;93.48;100715.47;5051871;28;20252;-72
2021/03/16 05:13:29;;;;;;;7.13;2.03;;;;;;;1.91;93.98;100714.41;5051820;28;20377;-73
2021/03/16 05:15:54;;;;;;;29.47;2.73;;;;;;;1.89;93.20;100724.63;5051776;28;20202;-73
2021/03/16 05:18:19;;;;;;;1.53;1.00;;;;;;;1.90;93.49;100725.44;5071429;28;20193;-74
2021/03/16 05:20:45;;;;;;;1.10;1.00;;;;;;;1.88;92.80;100736.47;5071637;28;20189;-73
2021/03/16 05:23:10;;;;;;;0.57;0.57;;;;;;;1.86;92.84;100733.19;5071735;28;20183;-72
2021/03/16 05:25:36;;;;;;;0.73;0.73;;;;;;;1.89;92.67;100734.59;5071601;28;20175;-73
2021/03/16 05:28:01;;;;;;;2.90;1.33;;;;;;;1.90;92.37;100733.53;5071100;28;20204;-73
2021/03/16 05:30:27;;;;;;;8.73;3.23;;;;;;;1.89;91.92;100748.06;5071617;28;20162;-73
2021/03/16 05:32:57;;;;;;;2.37;1.27;;;;;;;1.89;92.22;100745.38;5071470;28;20174;-73
2021/03/16 05:35:24;;;;;;;0.77;0.77;;;;;;;1.88;92.34;100747.25;5070815;28;20824;-73
2021/03/16 05:37:49;;;;;;;0.10;0.10;;;;;;;1.91;92.28;100754.00;5070907;28;20943;-73
2021/03/16 05:40:15;;;;;;;1.00;1.00;;;;;;;1.90;91.89;100752.38;5071313;28;20421;-74
2021/03/16 05:42:41;;;;;;;0.67;0.67;;;;;;;1.92;92.40;100751.06;5071330;28;20170;-73
2021/03/16 05:45:07;;;;;;;8.90;2.03;;;;;;;1.92;92.14;100758.34;5071280;28;20850;-74
2021/03/16 05:47:32;;;;;;;1.20;1.10;;;;;;;1.93;91.87;100757.28;5070723;28;20456;-73
2021/03/16 05:50:00;;;;;;;0.83;0.83;;;;;;;1.93;91.92;100758.09;5071336;28;20186;-74
2021/03/16 05:52:25;;;;;;;1.80;1.70;;;;;;;1.94;92.20;100761.59;5072494;28;20315;-74
2021/03/16 05:54:54;;;;;;;2.67;2.57;;;;;;;1.95;92.71;100764.03;5073140;28;20824;-75
2021/03/16 05:57:20;;;;;;;0.93;0.93;;;;;;;1.96;91.97;100771.06;5071474;28;20554;-75
2021/03/16 05:59:47;;;;;;;3.83;3.13;;;;;;;1.99;91.97;100770.56;5070980;28;20472;-76
2021/03/16 06:02:12;;;;;;;1.67;1.57;;;;;;;2.02;91.94;100775.44;5070764;28;20520;-76
2021/03/16 06:04:47;;;;;;;1.77;1.67;;;;;;;2.03;91.98;100779.81;5070324;28;20503;-75
2021/03/16 06:07:16;;;;;;;0.73;0.73;;;;;;;2.06;92.07;100779.31;5070356;28;20182;-75
2021/03/16 06:09:42;;;;;;;0.77;0.77;;;;;;;2.09;92.07;100777.97;5070823;28;20798;-75
2021/03/16 06:12:08;;;;;;;0.43;0.43;;;;;;;2.12;92.13;100785.56;5070755;28;20499;-75
2021/03/16 06:14:35;;;;;;;1.03;1.03;;;;;;;2.13;92.23;100779.13;5070732;28;20426;-75
2021/03/16 06:17:03;;;;;;;0.27;0.27;;;;;;;2.18;92.17;100779.22;5070451;28;20516;-75
2021/03/16 06:19:30;;;;;;;0.30;0.30;;;;;;;2.20;92.30;100778.97;5070476;28;20863;-76
2021/03/16 06:22:03;;;;;;;1.13;1.13;;;;;;;2.22;92.69;100785.72;5070686;28;20709;-72
2021/03/16 06:24:29;;;;;;;0.10;0.10;;;;;;;2.25;92.36;100777.13;5070815;28;20420;-76
2021/03/16 06:26:55;;;;;;;0.60;0.60;;;;;;;2.27;92.62;100772.31;5070576;28;20553;-73
2021/03/16 06:29:22;;;;;;;1.60;1.50;;;;;;;2.32;92.27;100783.19;5070602;28;20305;-73
2021/03/16 06:31:48;;;;;;;7.50;1.43;;;;;;;2.35;92.29;100788.06;5070573;28;20459;-72
2021/03/16 06:34:24;;;;;;;2.00;1.07;;;;;;;2.42;92.48;100792.47;5070666;28;20904;-72
2021/03/16 06:36:58;;;;;;;0.73;0.67;;;;;;;2.44;92.28;100790.31;5070267;28;20295;-73
2021/03/16 06:39:24;;;;;;;0.73;0.73;;;;;;;2.49;92.71;100785.03;5070532;28;20424;-73
2021/03/16 06:41:51;;;;;;;6.00;1.27;;;;;;;2.53;92.60;100792.34;5070434;28;20412;-73
2021/03/16 06:44:18;;;;;;;0.50;0.50;;;;;;;2.58;91.89;100789.72;5070469;28;20420;-73
2021/03/16 06:46:52;;;;;;;1.10;0.70;;;;;;;2.65;91.57;100790.38;5071587;28;20499;-72
2021/03/16 06:49:20;;;;;;;0.20;0.20;;;;;;;2.72;91.08;100800.94;5057754;28;20473;-74
2021/03/16 06:51:46;;;;;;;3.23;1.40;;;;;;;2.77;90.55;100798.34;5054551;28;20957;-72
2021/03/16 06:54:22;;;;;;;7.07;4.10;;;;;;;2.84;90.79;100798.13;5054466;28;20425;-73
2021/03/16 06:56:54;;;;;;;1.70;1.60;;;;;;;2.88;90.45;100808.16;5054222;28;20496;-74
2021/03/16 06:59:25;;;;;;;0.30;0.30;;;;;;;2.89;90.12;100811.69;5054332;28;20551;-72
2021/03/16 07:01:51;;;;;;;3.17;1.53;;;;;;;2.91;90.43;100814.97;5036575;28;20448;-73
2021/03/16 07:04:19;;;;;;;0.37;0.37;;;;;;;2.94;89.66;100814.47;5053396;28;20451;-73
2021/03/16 07:06:46;;;;;;;8.03;0.50;;;;;;;3.02;89.34;100823.97;5053684;28;20440;-73
2021/03/16 07:09:12;;;;;;;0.43;0.43;;;;;;;3.07;89.15;100826.75;5036186;28;21016;-72
2021/03/16 07:11:47;;;;;;;1.93;0.77;;;;;;;3.12;88.67;100829.50;5054506;28;20457;-73
2021/03/16 07:14:14;;;;;;;0.20;0.20;;;;;;;3.15;88.76;100816.31;5054027;28;20449;-73
2021/03/16 07:16:42;;;;;;;5.03;1.73;;;;;;;3.21;88.92;100825.31;5053678;28;20171;-73
2021/03/16 07:19:08;;;;;;;0.53;0.23;;;;;;;3.26;88.62;100820.75;5036166;28;20175;-73
2021/03/16 07:21:38;;;;;;;7.43;1.63;;;;;;;3.31;88.28;100825.41;5054083;28;20225;-72
2021/03/16 07:24:11;;;;;;;5.03;0.67;;;;;;;3.31;87.85;100829.97;5053735;28;20171;-72
2021/03/16 07:26:40;;;;;;;20.53;2.10;;;;;;;3.40;88.26;100829.28;5053465;28;20935;-72
2021/03/16 07:29:07;;;;;;;6.03;1.03;;;;;;;3.47;88.57;100824.50;5053973;28;20662;-73
2021/03/16 07:31:36;;;;;;;0.50;0.50;;;;;;;3.50;88.26;100828.59;5053776;28;20179;-73
2021/03/16 07:34:07;;;;;;;0.10;0.10;;;;;;;3.54;88.50;100827.00;5054399;28;20198;-72
2021/03/16 07:36:34;;;;;;;1.60;0.27;;;;;;;3.60;88.79;100825.97;5053221;28;20202;-72
2021/03/16 07:39:02;;;;;;;1.30;0.90;;;;;;;3.66;87.96;100824.13;5053763;28;20433;-73
2021/03/16 07:41:28;;;;;;;0.63;0.57;;;;;;;3.67;87.56;100826.59;5053745;28;20255;-72
2021/03/16 07:44:05;;;;;;;1.17;0.53;;;;;;;3.71;87.17;100829.56;5053909;28;20512;-73
2021/03/16 07:46:42;;;;;;;1.80;1.70;;;;;;;3.79;86.60;100829.13;5053488;28;20228;-73
2021/03/16 07:49:09;;;;;;;0.00;0.00;;;;;;;3.87;86.08;100829.44;5053307;28;20674;-72
2021/03/16 07:51:35;;;;;;;1.50;0.63;;;;;;;3.86;85.80;100835.94;5053486;28;20254;-73
2021/03/16 07:54:02;;;;;;;0.20;0.20;;;;;;;3.91;85.75;100843.28;5035504;28;20607;-71
2021/03/16 07:56:30;;;;;;;0.67;0.67;;;;;;;3.89;85.82;100838.13;5052842;28;20627;-71
2021/03/16 07:58:56;;;;;;;6.67;2.47;;;;;;;3.99;84.86;100850.91;5052775;28;20437;-69
2021/03/16 08:01:21;;;;;;;9.90;0.67;;;;;;;4.02;84.28;100836.06;5053079;28;20423;-72
2021/03/16 08:03:47;;;;;;;0.77;0.40;;;;;;;4.01;83.88;100842.53;5052364;28;20258;-70
2021/03/16 08:06:26;;;;;;;2.23;0.47;;;;;;;4.14;84.21;100840.22;5052908;28;20175;-71
2021/03/16 08:08:53;;;;;;;0.00;0.00;;;;;;;4.16;83.94;100842.66;5053049;28;20210;-74
2021/03/16 08:11:19;;;;;;;1.37;0.63;;;;;;;4.25;84.08;100853.81;5053329;28;20674;-71
2021/03/16 08:13:56;;;;;;;0.73;0.73;;;;;;;4.34;83.65;100850.38;5053090;28;20168;-71
2021/03/16 08:16:32;;;;;;;0.83;0.83;;;;;;;4.39;84.07;100855.00;5052368;28;20735;-72
2021/03/16 08:19:14;;;;;;;14.67;0.50;;;;;;;4.42;83.36;100860.72;5054864;28;20186;-73
2021/03/16 08:21:41;;;;;;;1.93;1.83;;;;;;;4.38;83.27;100864.19;5054886;28;20273;-73
2021/03/16 08:24:12;;;;;;;0.70;0.40;;;;;;;4.32;83.61;100873.34;5054870;28;20170;-73
2021/03/16 08:26:47;;;;;;;1.10;1.03;;;;;;;4.36;82.85;100866.34;5072352;28;20210;-74
2021/03/16 08:29:14;;;;;;;1.03;1.03;;;;;;;4.41;82.85;100869.91;5072699;28;20209;-74
2021/03/16 08:31:40;;;;;;;0.53;0.53;;;;;;;4.36;80.41;100872.56;5072658;28;20541;-72
2021/03/16 08:34:09;;;;;;;0.67;0.67;;;;;;;4.39;80.57;100868.53;5072788;28;20171;-73
2021/03/16 08:36:42;;;;;;;0.77;0.30;;;;;;;4.45;80.68;100862.06;5072117;28;20257;-72
2021/03/16 08:39:09;;;;;;;0.30;0.30;;;;;;;4.54;80.96;100871.34;5072405;28;20175;-73
2021/03/16 08:41:34;;;;;;;0.60;0.60;;;;;;;4.54;79.56;100873.22;5072636;28;20198;-73
2021/03/16 08:44:00;;;;;;;2.53;0.33;;;;;;;4.60;79.85;100881.09;5072674;28;20197;-73
2021/03/16 08:46:30;;;;;;;1.40;0.30;;;;;;;4.52;78.87;100873.50;5072043;28;20177;-72
2021/03/16 08:48:55;;;;;;;0.77;0.73;;;;;;;4.52;79.81;100876.19;5072475;28;20580;-73
2021/03/16 08:51:24;;;;;;;0.63;0.50;;;;;;;4.51;80.38;100871.06;5072239;28;20228;-73
2021/03/16 08:53:49;;;;;;;2.93;0.67;;;;;;;4.49;81.67;100890.25;5072351;28;20177;-73
2021/03/16 08:56:19;;;;;;;0.87;0.80;;;;;;;4.47;81.80;100887.78;5071804;28;20170;-73
2021/03/16 08:58:44;;;;;;;0.50;0.50;;;;;;;4.47;80.31;100886.97;5072250;28;20173;-73
2021/03/16 09:01:10;;;;;;;0.07;0.07;;;;;;;4.44;80.25;100893.72;5072258;28;20420;-73
2021/03/16 09:03:35;;;;;;;0.43;0.40;;;;;;;4.47;81.47;100898.59;5071339;28;20200;-73
2021/03/16 09:06:00;;;;;;;3.37;1.57;;;;;;;4.43;81.54;100894.78;5071923;28;20166;-72
2021/03/16 09:08:26;;;;;;;1.13;1.03;;;;;;;4.45;81.27;100902.66;5071613;28;20238;-74
2021/03/16 09:10:51;;;;;;;0.53;0.53;;;;;;;4.54;81.55;100914.63;5053093;28;20666;-73
2021/03/16 09:13:27;;;;;;;0.43;0.43;;;;;;;4.59;80.91;100900.31;5071951;28;20187;-73
2021/03/16 09:15:52;;;;;;;2.03;0.10;;;;;;;4.78;81.01;100893.41;5071912;28;20207;-72
2021/03/16 09:18:21;;;;;;;3.07;0.17;;;;;;;4.91;80.02;100892.94;5071553;28;20178;-72
2021/03/16 09:20:48;;;;;;;0.50;0.50;;;;;;;4.94;79.51;100903.25;5071826;28;20170;-73
2021/03/16 09:23:13;;;;;;;2.73;0.80;;;;;;;4.92;79.78;100899.16;5053877;28;20170;-72
2021/03/16 09:25:45;;;;;;;0.00;0.00;;;;;;;4.84;81.92;100895.06;5071632;28;20522;-74
2021/03/16 09:28:14;;;;;;;0.53;0.53;;;;;;;4.84;82.56;100886.94;5071134;28;20210;-71
2021/03/16 09:30:52;;;;;;;0.87;0.20;;;;;;;4.93;82.60;100879.97;5071590;28;20236;-72
2021/03/16 09:33:19;;;;;;;1.07;1.07;;;;;;;4.96;81.74;100886.75;5071396;28;20174;-72
2021/03/16 09:35:54;;;;;;;0.43;0.43;;;;;;;5.03;81.51;100890.00;5071441;28;20178;-72
2021/03/16 09:38:19;;;;;;;2.03;0.60;;;;;;;4.92;81.02;100900.00;5055131;28;20252;-70
2021/03/16 09:40:45;;;;;;;0.30;0.30;;;;;;;4.96;81.50;100884.03;5051371;28;20183;-71
2021/03/16 09:43:25;;;;;;;1.30;0.10;;;;;;;4.96;79.37;100892.16;5051555;28;20226;-72
2021/03/16 09:46:05;;;;;;;1.30;1.00;;;;;;;4.87;78.83;100891.84;5051398;28;20181;-71
2021/03/16 09:48:31;;;;;;;0.53;0.23;;;;;;;5.01;80.43;100892.19;5051268;28;20621;-71
2021/03/16 09:51:28;;;;;;;0.20;0.20;;;;;;;5.04;79.09;100888.94;5051338;28;20206;-72
2021/03/16 09:53:58;;;;;;;4.27;0.30;;;;;;;5.07;78.67;100891.13;5051209;28;20513;-71
2021/03/16 09:56:28;;;;;;;0.23;0.23;;;;;;;5.07;78.84;100888.44;5035516;28;20549;-73
2021/03/16 09:58:58;;;;;;;0.10;0.10;;;;;;;5.05;79.79;100888.66;5065818;28;20174;-71
2021/03/16 10:01:24;;;;;;;0.43;0.30;;;;;;;5.01;79.86;100892.19;5071303;28;20159;-71
2021/03/16 10:03:59;;;;;;;6.33;0.87;;;;;;;5.06;80.88;100900.31;5066514;28;20174;-71
2021/03/16 10:06:36;;;;;;;0.00;0.00;;;;;;;5.08;77.94;100903.59;5050657;28;20179;-71
2021/03/16 10:09:14;;;;;;;6.53;0.50;;;;;;;5.17;77.34;100904.72;5051151;28;20685;-71
2021/03/16 10:11:39;;;;;;;0.00;0.00;;;;;;;5.25;77.70;100906.91;5051176;28;20615;-69
2021/03/16 10:14:04;;;;;;;0.77;0.43;;;;;;;5.35;79.17;100908.84;5051261;28;20174;-72
2021/03/16 10:16:33;;;;;;;0.10;0.10;;;;;;;5.23;78.42;100906.38;5050507;28;20187;-72
2021/03/16 10:18:58;;;;;;;0.00;0.00;;;;;;;5.20;78.27;100906.88;5051028;28;20190;-71
2021/03/16 10:21:31;;;;;;;7.87;0.10;;;;;;;5.33;77.99;100911.81;5058365;28;20643;-71
2021/03/16 10:24:04;;;;;;;1.80;1.03;;;;;;;5.58;78.36;100915.72;5071083;28;20690;-71
2021/03/16 10:26:29;;;;;;;0.67;0.30;;;;;;;5.66;77.46;100907.06;5041517;28;20469;-72
2021/03/16 10:28:55;;;;;;;0.17;0.17;;;;;;;5.55;75.11;100913.53;5032934;28;20211;-71
2021/03/16 10:31:22;;;;;;;1.50;1.40;;;;;;;5.52;75.08;100914.06;5050743;28;20214;-71
2021/03/16 10:33:50;;;;;;;0.20;0.10;;;;;;;5.63;75.37;100919.22;5050754;28;20167;-71
2021/03/16 10:36:16;;;;;;;0.23;0.20;;;;;;;5.61;75.32;100907.84;5050452;28;20194;-74
2021/03/16 10:38:42;;;;;;;0.10;0.10;;;;;;;5.70;76.35;100913.56;5050716;28;20167;-73
2021/03/16 10:41:08;;;;;;;0.20;0.20;;;;;;;5.61;77.44;100913.28;5051089;28;20521;-72
2021/03/16 10:43:35;;;;;;;0.63;0.50;;;;;;;5.35;78.88;100920.53;5050437;28;20651;-72
2021/03/16 10:46:00;;;;;;;0.53;0.43;;;;;;;5.17;81.26;100922.84;5049258;28;20526;-72
2021/03/16 10:48:26;;;;;;;0.40;0.40;;;;;;;5.12;81.37;100922.84;5048812;28;20198;-73
2021/03/16 10:50:52;;;;;;;0.63;0.20;;;;;;;5.09;82.00;100932.31;5049992;28;20298;-71
2021/03/16 10:53:18;;;;;;;6.40;0.80;;;;;;;5.08;83.25;100926.06;5050167;28;20505;-72
2021/03/16 10:55:44;;;;;;;0.10;0.10;;;;;;;4.99;80.63;100921.41;5050046;28;20262;-73
2021/03/16 10:58:17;;;;;;;0.00;0.00;;;;;;;4.98;81.65;100915.19;5050016;28;20297;-72
2021/03/16 11:00:42;;;;;;;2.70;0.60;;;;;;;5.04;82.17;100919.53;5050426;28;20205;-71
2021/03/16 11:03:08;;;;;;;0.00;0.00;;;;;;;5.14;80.78;100921.50;5050538;28;20238;-70
2021/03/16 11:05:34;;;;;;;0.83;0.77;;;;;;;5.29;80.23;100918.84;5050268;28;20201;-72
2021/03/16 11:07:59;;;;;;;0.40;0.40;;;;;;;5.40;78.04;100911.59;5050069;28;20191;-71
2021/03/16 11:10:25;;;;;;;0.37;0.37;;;;;;;5.62;77.93;100917.59;5050517;28;20531;-72
2021/03/16 11:12:51;;;;;;;1.03;0.40;;;;;;;5.73;77.71;100923.06;5050577;28;20183;-72
2021/03/16 11:15:16;;;;;;;0.30;0.30;;;;;;;5.71;77.83;100927.94;5049283;28;20175;-72
2021/03/16 11:17:44;;;;;;;1.40;0.60;;;;;;;5.78;77.27;100929.31;5049620;28;20167;-72
2021/03/16 11:20:09;;;;;;;4.50;0.30;;;;;;;5.95;77.46;100921.00;5049512;28;20180;-72
2021/03/16 11:22:35;;;;;;;0.37;0.33;;;;;;;6.03;76.73;100916.91;5050303;28;20219;-71
2021/03/16 11:25:00;;;;;;;0.50;0.23;;;;;;;5.95;77.25;100918.28;5050316;28;20712;-71
2021/03/16 11:27:25;;;;;;;0.00;0.00;;;;;;;5.69;79.72;100925.50;5049924;28;20651;-73
2021/03/16 11:29:52;;;;;;;0.20;0.20;;;;;;;5.27;80.83;100941.88;5050179;28;20194;-73
2021/03/16 11:32:17;;;;;;;0.20;0.20;;;;;;;4.94;82.26;100924.09;5049924;28;20851;-73
2021/03/16 11:34:43;;;;;;;0.37;0.23;;;;;;;4.90;83.95;100931.09;5053290;28;20175;-72
2021/03/16 11:37:08;;;;;;;0.00;0.00;;;;;;;4.90;83.69;100925.69;5053542;28;20532;-73